sensor_id;sensor_type;location;lat;lon;timestamp;P1;durP1;ratioP1;P2;durP2;ratioP2
59408;SDS011;45213;32.654;-115.458;2022-07-29T00:01:29;6.95;;;2.30;;
59408;SDS011;45213;32.654;-115.458;2022-07-29T00:03:55;6.68;;;2.10;;
59408;SDS011;45213;32.654;-115.458;2022-07-29T00:06:22;8.35;;;1.70;;
59408;SDS011;45213;32.654;-115.458;2022-07-29T00:08:49;3.38;;;1.80;;
59408;SDS011;45213;32.654;-115.458;2022-07-29T00:11:15;6.82;;;1.85;;
59408;SDS011;45213;32.654;-115.458;2022-07-29T00:13:42;6.90;;;1.90;;
59408;SDS011;45213;32.654;-115.458;2022-07-29T00:16:11;8.50;;;2.70;;
59408;SDS011;45213;32.654;-115.458;2022-07-29T00:18:38;5.53;;;1.90;;
59408;SDS011;45213;32.654;-115.458;2022-07-29T00:21:05;5.90;;;2.25;;
59408;SDS011;45213;32.654;-115.458;2022-07-29T00:23:31;5.90;;;1.80;;
59408;SDS011;45213;32.654;-115.458;2022-07-29T00:25:58;6.63;;;1.75;;
59408;SDS011;45213;32.654;-115.458;2022-07-29T00:28:25;5.03;;;1.90;;
59408;SDS011;45213;32.654;-115.458;2022-07-29T00:30:51;7.32;;;1.80;;
59408;SDS011;45213;32.654;-115.458;2022-07-29T00:33:18;6.43;;;2.10;;
59408;SDS011;45213;32.654;-115.458;2022-07-29T00:35:45;6.65;;;1.60;;
59408;SDS011;45213;32.654;-115.458;2022-07-29T00:38:12;6.05;;;1.70;;
59408;SDS011;45213;32.654;-115.458;2022-07-29T00:40:41;7.03;;;1.92;;
59408;SDS011;45213;32.654;-115.458;2022-07-29T00:43:09;6.10;;;1.80;;
59408;SDS011;45213;32.654;-115.458;2022-07-29T00:45:36;9.25;;;2.20;;
59408;SDS011;45213;32.654;-115.458;2022-07-29T00:48:03;6.82;;;1.98;;
59408;SDS011;45213;32.654;-115.458;2022-07-29T00:50:31;5.63;;;2.05;;
59408;SDS011;45213;32.654;-115.458;2022-07-29T00:52:58;6.07;;;2.03;;
59408;SDS011;45213;32.654;-115.458;2022-07-29T00:55:25;4.65;;;2.00;;
59408;SDS011;45213;32.654;-115.458;2022-07-29T00:57:52;7.95;;;2.25;;
59408;SDS011;45213;32.654;-115.458;2022-07-29T01:00:22;8.52;;;2.33;;
59408;SDS011;45213;32.654;-115.458;2022-07-29T01:05:22;8.02;;;2.70;;
59408;SDS011;45213;32.654;-115.458;2022-07-29T01:07:52;6.95;;;2.53;;
59408;SDS011;45213;32.654;-115.458;2022-07-29T01:10:23;10.02;;;2.83;;
59408;SDS011;45213;32.654;-115.458;2022-07-29T01:12:52;5.53;;;2.25;;
59408;SDS011;45213;32.654;-115.458;2022-07-29T01:15:21;7.68;;;2.22;;
59408;SDS011;45213;32.654;-115.458;2022-07-29T01:18:22;5.13;;;2.10;;
59408;SDS011;45213;32.654;-115.458;2022-07-29T01:21:02;7.40;;;2.60;;
59408;SDS011;45213;32.654;-115.458;2022-07-29T01:26:57;5.30;;;2.30;;
59408;SDS011;45213;32.654;-115.458;2022-07-29T01:29:36;6.85;;;1.88;;
59408;SDS011;45213;32.654;-115.458;2022-07-29T01:32:14;26.70;;;7.57;;
59408;SDS011;45213;32.654;-115.458;2022-07-29T01:34:53;8.07;;;2.75;;
59408;SDS011;45213;32.654;-115.458;2022-07-29T01:40:52;6.65;;;2.30;;
59408;SDS011;45213;32.654;-115.458;2022-07-29T01:43:31;5.13;;;2.08;;
59408;SDS011;45213;32.654;-115.458;2022-07-29T01:46:17;5.63;;;1.95;;
59408;SDS011;45213;32.654;-115.458;2022-07-29T01:48:55;4.82;;;2.20;;
59408;SDS011;45213;32.654;-115.458;2022-07-29T01:51:36;11.07;;;2.65;;
59408;SDS011;45213;32.654;-115.458;2022-07-29T01:56:55;8.85;;;1.70;;
59408;SDS011;45213;32.654;-115.458;2022-07-29T01:59:24;8.52;;;2.03;;
59408;SDS011;45213;32.654;-115.458;2022-07-29T02:01:57;7.28;;;1.63;;
59408;SDS011;45213;32.654;-115.458;2022-07-29T02:04:25;10.07;;;1.70;;
59408;SDS011;45213;32.654;-115.458;2022-07-29T02:06:57;7.53;;;2.03;;
59408;SDS011;45213;32.654;-115.458;2022-07-29T02:09:27;7.32;;;1.77;;
59408;SDS011;45213;32.654;-115.458;2022-07-29T02:11:59;5.43;;;1.42;;
59408;SDS011;45213;32.654;-115.458;2022-07-29T02:14:28;6.57;;;1.50;;
59408;SDS011;45213;32.654;-115.458;2022-07-29T02:17:00;5.05;;;1.60;;
59408;SDS011;45213;32.654;-115.458;2022-07-29T02:19:32;8.55;;;1.65;;
59408;SDS011;45213;32.654;-115.458;2022-07-29T02:22:03;8.65;;;1.63;;
59408;SDS011;45213;32.654;-115.458;2022-07-29T02:24:33;12.27;;;1.73;;
59408;SDS011;45213;32.654;-115.458;2022-07-29T02:27:04;11.00;;;1.77;;
59408;SDS011;45213;32.654;-115.458;2022-07-29T02:29:30;9.93;;;1.67;;
59408;SDS011;45213;32.654;-115.458;2022-07-29T02:31:58;12.90;;;2.00;;
59408;SDS011;45213;32.654;-115.458;2022-07-29T02:34:27;9.07;;;2.05;;
59408;SDS011;45213;32.654;-115.458;2022-07-29T02:36:55;4.10;;;1.27;;
59408;SDS011;45213;32.654;-115.458;2022-07-29T02:39:22;11.35;;;1.55;;
59408;SDS011;45213;32.654;-115.458;2022-07-29T02:42:03;6.07;;;1.60;;
59408;SDS011;45213;32.654;-115.458;2022-07-29T02:44:33;10.43;;;1.80;;
59408;SDS011;45213;32.654;-115.458;2022-07-29T02:52:19;11.30;;;1.50;;
59408;SDS011;45213;32.654;-115.458;2022-07-29T02:54:51;6.07;;;1.50;;
59408;SDS011;45213;32.654;-115.458;2022-07-29T02:57:33;4.85;;;1.38;;
59408;SDS011;45213;32.654;-115.458;2022-07-29T03:00:08;7.40;;;1.90;;
59408;SDS011;45213;32.654;-115.458;2022-07-29T03:02:37;11.63;;;1.83;;
59408;SDS011;45213;32.654;-115.458;2022-07-29T03:05:09;7.70;;;1.63;;
59408;SDS011;45213;32.654;-115.458;2022-07-29T03:07:43;8.70;;;1.80;;
59408;SDS011;45213;32.654;-115.458;2022-07-29T03:10:20;9.00;;;1.63;;
59408;SDS011;45213;32.654;-115.458;2022-07-29T03:12:47;6.03;;;1.58;;
59408;SDS011;45213;32.654;-115.458;2022-07-29T03:15:14;5.22;;;1.20;;
59408;SDS011;45213;32.654;-115.458;2022-07-29T03:17:41;6.07;;;1.80;;
59408;SDS011;45213;32.654;-115.458;2022-07-29T03:20:09;7.57;;;1.60;;
59408;SDS011;45213;32.654;-115.458;2022-07-29T03:22:41;6.82;;;1.45;;
59408;SDS011;45213;32.654;-115.458;2022-07-29T03:25:14;11.10;;;1.65;;
59408;SDS011;45213;32.654;-115.458;2022-07-29T03:27:42;9.00;;;1.73;;
59408;SDS011;45213;32.654;-115.458;2022-07-29T03:30:10;5.35;;;1.30;;
59408;SDS011;45213;32.654;-115.458;2022-07-29T03:32:39;6.82;;;1.88;;
59408;SDS011;45213;32.654;-115.458;2022-07-29T03:35:07;6.97;;;1.48;;
59408;SDS011;45213;32.654;-115.458;2022-07-29T03:37:34;5.25;;;1.58;;
59408;SDS011;45213;32.654;-115.458;2022-07-29T03:40:06;4.35;;;1.45;;
59408;SDS011;45213;32.654;-115.458;2022-07-29T03:42:56;4.15;;;1.45;;
59408;SDS011;45213;32.654;-115.458;2022-07-29T03:45:25;8.90;;;1.65;;
59408;SDS011;45213;32.654;-115.458;2022-07-29T03:47:54;5.05;;;1.60;;
59408;SDS011;45213;32.654;-115.458;2022-07-29T03:50:28;6.68;;;1.60;;
59408;SDS011;45213;32.654;-115.458;2022-07-29T03:53:03;5.78;;;1.85;;
59408;SDS011;45213;32.654;-115.458;2022-07-29T03:55:32;5.43;;;1.70;;
59408;SDS011;45213;32.654;-115.458;2022-07-29T03:58:04;5.65;;;1.83;;
59408;SDS011;45213;32.654;-115.458;2022-07-29T04:00:34;4.80;;;1.90;;
59408;SDS011;45213;32.654;-115.458;2022-07-29T04:03:01;5.40;;;1.40;;
59408;SDS011;45213;32.654;-115.458;2022-07-29T04:05:30;6.97;;;1.70;;
59408;SDS011;45213;32.654;-115.458;2022-07-29T04:07:57;4.65;;;1.30;;
59408;SDS011;45213;32.654;-115.458;2022-07-29T04:10:23;6.80;;;2.25;;
59408;SDS011;45213;32.654;-115.458;2022-07-29T04:12:50;5.82;;;1.58;;
59408;SDS011;45213;32.654;-115.458;2022-07-29T04:15:18;4.45;;;1.23;;
59408;SDS011;45213;32.654;-115.458;2022-07-29T04:17:45;7.38;;;1.60;;
59408;SDS011;45213;32.654;-115.458;2022-07-29T04:20:11;5.07;;;1.50;;
59408;SDS011;45213;32.654;-115.458;2022-07-29T04:22:39;27.27;;;2.92;;
59408;SDS011;45213;32.654;-115.458;2022-07-29T04:25:09;4.53;;;1.55;;
59408;SDS011;45213;32.654;-115.458;2022-07-29T04:27:36;7.33;;;1.60;;
59408;SDS011;45213;32.654;-115.458;2022-07-29T04:30:25;6.93;;;1.42;;
59408;SDS011;45213;32.654;-115.458;2022-07-29T04:32:52;5.15;;;1.30;;
59408;SDS011;45213;32.654;-115.458;2022-07-29T04:35:19;3.92;;;1.40;;
59408;SDS011;45213;32.654;-115.458;2022-07-29T04:37:46;5.57;;;1.63;;
59408;SDS011;45213;32.654;-115.458;2022-07-29T04:40:13;7.78;;;1.52;;
59408;SDS011;45213;32.654;-115.458;2022-07-29T04:42:40;6.47;;;1.85;;
59408;SDS011;45213;32.654;-115.458;2022-07-29T04:45:07;3.15;;;1.38;;
59408;SDS011;45213;32.654;-115.458;2022-07-29T04:47:37;6.90;;;1.83;;
59408;SDS011;45213;32.654;-115.458;2022-07-29T04:50:04;6.57;;;1.83;;
59408;SDS011;45213;32.654;-115.458;2022-07-29T04:52:47;4.75;;;1.48;;
59408;SDS011;45213;32.654;-115.458;2022-07-29T04:55:17;3.47;;;1.95;;
59408;SDS011;45213;32.654;-115.458;2022-07-29T04:57:44;3.13;;;1.30;;
59408;SDS011;45213;32.654;-115.458;2022-07-29T05:00:11;7.28;;;1.50;;
59408;SDS011;45213;32.654;-115.458;2022-07-29T05:02:38;5.68;;;1.58;;
59408;SDS011;45213;32.654;-115.458;2022-07-29T05:05:05;4.35;;;1.17;;
59408;SDS011;45213;32.654;-115.458;2022-07-29T05:07:32;4.97;;;1.40;;
59408;SDS011;45213;32.654;-115.458;2022-07-29T05:09:59;4.72;;;1.70;;
59408;SDS011;45213;32.654;-115.458;2022-07-29T05:12:26;7.03;;;1.55;;
59408;SDS011;45213;32.654;-115.458;2022-07-29T05:14:53;6.97;;;1.75;;
59408;SDS011;45213;32.654;-115.458;2022-07-29T05:17:20;3.85;;;1.48;;
59408;SDS011;45213;32.654;-115.458;2022-07-29T05:19:47;7.15;;;1.83;;
59408;SDS011;45213;32.654;-115.458;2022-07-29T05:22:13;6.88;;;1.63;;
59408;SDS011;45213;32.654;-115.458;2022-07-29T05:24:40;6.47;;;1.80;;
59408;SDS011;45213;32.654;-115.458;2022-07-29T05:27:07;6.55;;;1.30;;
59408;SDS011;45213;32.654;-115.458;2022-07-29T05:29:33;6.00;;;1.42;;
59408;SDS011;45213;32.654;-115.458;2022-07-29T05:32:00;8.07;;;1.50;;
59408;SDS011;45213;32.654;-115.458;2022-07-29T05:34:27;7.53;;;2.28;;
59408;SDS011;45213;32.654;-115.458;2022-07-29T05:36:57;7.93;;;2.47;;
59408;SDS011;45213;32.654;-115.458;2022-07-29T05:39:24;6.45;;;2.42;;
59408;SDS011;45213;32.654;-115.458;2022-07-29T05:41:50;8.15;;;2.40;;
59408;SDS011;45213;32.654;-115.458;2022-07-29T05:44:17;7.03;;;2.47;;
59408;SDS011;45213;32.654;-115.458;2022-07-29T05:46:44;10.68;;;2.85;;
59408;SDS011;45213;32.654;-115.458;2022-07-29T05:49:11;9.32;;;2.78;;
59408;SDS011;45213;32.654;-115.458;2022-07-29T05:51:37;7.82;;;2.70;;
59408;SDS011;45213;32.654;-115.458;2022-07-29T05:54:07;6.75;;;2.70;;
59408;SDS011;45213;32.654;-115.458;2022-07-29T05:56:33;7.68;;;2.85;;
59408;SDS011;45213;32.654;-115.458;2022-07-29T05:59:02;8.73;;;2.10;;
59408;SDS011;45213;32.654;-115.458;2022-07-29T06:01:29;7.95;;;2.35;;
59408;SDS011;45213;32.654;-115.458;2022-07-29T06:03:57;9.63;;;2.28;;
59408;SDS011;45213;32.654;-115.458;2022-07-29T06:06:27;10.43;;;2.60;;
59408;SDS011;45213;32.654;-115.458;2022-07-29T06:08:54;8.00;;;2.17;;
59408;SDS011;45213;32.654;-115.458;2022-07-29T06:11:21;11.52;;;2.00;;
59408;SDS011;45213;32.654;-115.458;2022-07-29T06:13:47;8.18;;;2.50;;
59408;SDS011;45213;32.654;-115.458;2022-07-29T06:16:14;7.30;;;2.20;;
59408;SDS011;45213;32.654;-115.458;2022-07-29T06:18:40;5.70;;;2.60;;
59408;SDS011;45213;32.654;-115.458;2022-07-29T06:21:10;7.85;;;2.53;;
59408;SDS011;45213;32.654;-115.458;2022-07-29T06:23:37;4.78;;;2.42;;
59408;SDS011;45213;32.654;-115.458;2022-07-29T06:26:05;7.03;;;2.20;;
59408;SDS011;45213;32.654;-115.458;2022-07-29T06:28:32;9.32;;;2.65;;
59408;SDS011;45213;32.654;-115.458;2022-07-29T06:30:59;8.20;;;2.45;;
59408;SDS011;45213;32.654;-115.458;2022-07-29T06:33:28;4.45;;;2.08;;
59408;SDS011;45213;32.654;-115.458;2022-07-29T06:35:55;6.80;;;2.13;;
59408;SDS011;45213;32.654;-115.458;2022-07-29T06:38:21;7.68;;;2.50;;
59408;SDS011;45213;32.654;-115.458;2022-07-29T06:40:48;6.90;;;2.10;;
59408;SDS011;45213;32.654;-115.458;2022-07-29T06:43:29;9.40;;;2.60;;
59408;SDS011;45213;32.654;-115.458;2022-07-29T06:46:04;5.43;;;2.35;;
59408;SDS011;45213;32.654;-115.458;2022-07-29T06:48:32;6.00;;;2.45;;
59408;SDS011;45213;32.654;-115.458;2022-07-29T06:50:59;9.05;;;2.55;;
59408;SDS011;45213;32.654;-115.458;2022-07-29T06:53:27;6.72;;;2.33;;
59408;SDS011;45213;32.654;-115.458;2022-07-29T06:55:54;7.80;;;2.13;;
59408;SDS011;45213;32.654;-115.458;2022-07-29T06:58:20;8.40;;;2.00;;
59408;SDS011;45213;32.654;-115.458;2022-07-29T07:00:54;5.32;;;2.03;;
59408;SDS011;45213;32.654;-115.458;2022-07-29T07:03:23;5.82;;;1.70;;
59408;SDS011;45213;32.654;-115.458;2022-07-29T07:05:51;7.07;;;1.92;;
59408;SDS011;45213;32.654;-115.458;2022-07-29T07:08:19;4.50;;;1.70;;
59408;SDS011;45213;32.654;-115.458;2022-07-29T07:10:47;6.35;;;2.30;;
59408;SDS011;45213;32.654;-115.458;2022-07-29T07:13:14;4.72;;;2.22;;
59408;SDS011;45213;32.654;-115.458;2022-07-29T07:15:43;6.20;;;1.85;;
59408;SDS011;45213;32.654;-115.458;2022-07-29T07:18:11;5.95;;;1.92;;
59408;SDS011;45213;32.654;-115.458;2022-07-29T07:20:37;6.65;;;1.80;;
59408;SDS011;45213;32.654;-115.458;2022-07-29T07:23:04;5.45;;;1.95;;
59408;SDS011;45213;32.654;-115.458;2022-07-29T07:25:31;6.93;;;1.80;;
59408;SDS011;45213;32.654;-115.458;2022-07-29T07:27:58;5.32;;;1.27;;
59408;SDS011;45213;32.654;-115.458;2022-07-29T07:30:24;4.47;;;1.70;;
59408;SDS011;45213;32.654;-115.458;2022-07-29T07:32:51;6.32;;;1.50;;
59408;SDS011;45213;32.654;-115.458;2022-07-29T07:35:20;4.55;;;1.60;;
59408;SDS011;45213;32.654;-115.458;2022-07-29T07:37:47;4.60;;;1.73;;
59408;SDS011;45213;32.654;-115.458;2022-07-29T07:40:14;5.82;;;1.90;;
59408;SDS011;45213;32.654;-115.458;2022-07-29T07:42:41;6.25;;;2.00;;
59408;SDS011;45213;32.654;-115.458;2022-07-29T07:45:08;6.68;;;2.28;;
59408;SDS011;45213;32.654;-115.458;2022-07-29T07:47:36;7.15;;;1.98;;
59408;SDS011;45213;32.654;-115.458;2022-07-29T07:50:04;4.70;;;2.03;;
59408;SDS011;45213;32.654;-115.458;2022-07-29T07:52:37;4.82;;;1.50;;
59408;SDS011;45213;32.654;-115.458;2022-07-29T07:55:13;4.68;;;1.80;;
59408;SDS011;45213;32.654;-115.458;2022-07-29T07:57:42;6.70;;;2.05;;
59408;SDS011;45213;32.654;-115.458;2022-07-29T08:00:09;6.15;;;1.60;;
59408;SDS011;45213;32.654;-115.458;2022-07-29T08:02:40;4.88;;;1.73;;
59408;SDS011;45213;32.654;-115.458;2022-07-29T08:05:08;4.97;;;1.90;;
59408;SDS011;45213;32.654;-115.458;2022-07-29T08:07:37;6.55;;;1.80;;
59408;SDS011;45213;32.654;-115.458;2022-07-29T08:10:04;5.95;;;1.80;;
59408;SDS011;45213;32.654;-115.458;2022-07-29T08:12:31;3.63;;;1.88;;
59408;SDS011;45213;32.654;-115.458;2022-07-29T08:15:00;4.38;;;1.50;;
59408;SDS011;45213;32.654;-115.458;2022-07-29T08:17:28;6.10;;;1.55;;
59408;SDS011;45213;32.654;-115.458;2022-07-29T08:19:54;6.95;;;1.88;;
59408;SDS011;45213;32.654;-115.458;2022-07-29T08:22:21;4.22;;;1.60;;
59408;SDS011;45213;32.654;-115.458;2022-07-29T08:24:48;5.45;;;2.05;;
59408;SDS011;45213;32.654;-115.458;2022-07-29T08:27:23;5.50;;;1.73;;
59408;SDS011;45213;32.654;-115.458;2022-07-29T08:29:52;6.93;;;2.00;;
59408;SDS011;45213;32.654;-115.458;2022-07-29T08:32:21;8.05;;;2.40;;
59408;SDS011;45213;32.654;-115.458;2022-07-29T08:34:48;3.65;;;1.63;;
59408;SDS011;45213;32.654;-115.458;2022-07-29T08:37:14;3.72;;;1.70;;
59408;SDS011;45213;32.654;-115.458;2022-07-29T08:39:41;5.00;;;1.60;;
59408;SDS011;45213;32.654;-115.458;2022-07-29T08:42:08;6.47;;;2.15;;
59408;SDS011;45213;32.654;-115.458;2022-07-29T08:44:36;5.22;;;1.70;;
59408;SDS011;45213;32.654;-115.458;2022-07-29T08:47:03;4.60;;;1.48;;
59408;SDS011;45213;32.654;-115.458;2022-07-29T08:49:30;4.53;;;1.80;;
59408;SDS011;45213;32.654;-115.458;2022-07-29T08:51:59;5.05;;;1.70;;
59408;SDS011;45213;32.654;-115.458;2022-07-29T08:54:28;6.07;;;2.05;;
59408;SDS011;45213;32.654;-115.458;2022-07-29T08:56:57;4.65;;;1.80;;
59408;SDS011;45213;32.654;-115.458;2022-07-29T08:59:26;4.90;;;2.20;;
59408;SDS011;45213;32.654;-115.458;2022-07-29T09:04:26;2.67;;;1.55;;
59408;SDS011;45213;32.654;-115.458;2022-07-29T09:06:57;4.97;;;1.90;;
59408;SDS011;45213;32.654;-115.458;2022-07-29T09:09:26;6.43;;;2.17;;
59408;SDS011;45213;32.654;-115.458;2022-07-29T09:11:53;5.25;;;2.00;;
59408;SDS011;45213;32.654;-115.458;2022-07-29T09:14:20;26.27;;;3.15;;
59408;SDS011;45213;32.654;-115.458;2022-07-29T09:16:56;3.97;;;1.85;;
59408;SDS011;45213;32.654;-115.458;2022-07-29T09:19:27;6.43;;;2.13;;
59408;SDS011;45213;32.654;-115.458;2022-07-29T09:21:57;5.65;;;1.88;;
59408;SDS011;45213;32.654;-115.458;2022-07-29T09:24:26;6.85;;;1.73;;
59408;SDS011;45213;32.654;-115.458;2022-07-29T09:29:45;5.10;;;1.60;;
59408;SDS011;45213;32.654;-115.458;2022-07-29T09:32:12;4.50;;;1.80;;
59408;SDS011;45213;32.654;-115.458;2022-07-29T09:34:39;6.35;;;2.05;;
59408;SDS011;45213;32.654;-115.458;2022-07-29T09:37:05;21.05;;;3.65;;
59408;SDS011;45213;32.654;-115.458;2022-07-29T09:42:11;4.78;;;2.10;;
59408;SDS011;45213;32.654;-115.458;2022-07-29T09:44:48;16.45;;;2.70;;
59408;SDS011;45213;32.654;-115.458;2022-07-29T09:47:17;7.68;;;1.95;;
59408;SDS011;45213;32.654;-115.458;2022-07-29T09:49:51;5.15;;;1.73;;
59408;SDS011;45213;32.654;-115.458;2022-07-29T09:52:20;6.00;;;1.80;;
59408;SDS011;45213;32.654;-115.458;2022-07-29T09:54:47;5.18;;;1.55;;
59408;SDS011;45213;32.654;-115.458;2022-07-29T09:59:59;5.72;;;1.70;;
59408;SDS011;45213;32.654;-115.458;2022-07-29T10:02:33;6.10;;;1.73;;
59408;SDS011;45213;32.654;-115.458;2022-07-29T10:05:02;4.43;;;1.45;;
59408;SDS011;45213;32.654;-115.458;2022-07-29T10:07:44;5.38;;;1.90;;
59408;SDS011;45213;32.654;-115.458;2022-07-29T10:10:17;3.60;;;1.50;;
59408;SDS011;45213;32.654;-115.458;2022-07-29T10:12:50;3.90;;;1.40;;
59408;SDS011;45213;32.654;-115.458;2022-07-29T10:15:22;4.07;;;1.60;;
59408;SDS011;45213;32.654;-115.458;2022-07-29T10:17:50;5.10;;;1.63;;
59408;SDS011;45213;32.654;-115.458;2022-07-29T10:20:18;4.15;;;1.83;;
59408;SDS011;45213;32.654;-115.458;2022-07-29T10:22:46;5.75;;;1.90;;
59408;SDS011;45213;32.654;-115.458;2022-07-29T10:25:14;5.35;;;2.30;;
59408;SDS011;45213;32.654;-115.458;2022-07-29T10:27:42;7.18;;;2.75;;
59408;SDS011;45213;32.654;-115.458;2022-07-29T10:30:10;5.50;;;2.45;;
59408;SDS011;45213;32.654;-115.458;2022-07-29T10:38:39;5.80;;;1.50;;
59408;SDS011;45213;32.654;-115.458;2022-07-29T10:44:26;4.75;;;1.27;;
59408;SDS011;45213;32.654;-115.458;2022-07-29T10:46:53;7.38;;;1.15;;
59408;SDS011;45213;32.654;-115.458;2022-07-29T10:49:24;5.00;;;1.60;;
59408;SDS011;45213;32.654;-115.458;2022-07-29T10:52:03;4.68;;;1.20;;
59408;SDS011;45213;32.654;-115.458;2022-07-29T10:59:49;2.67;;;1.00;;
59408;SDS011;45213;32.654;-115.458;2022-07-29T11:05:03;3.10;;;1.02;;
59408;SDS011;45213;32.654;-115.458;2022-07-29T11:07:32;3.38;;;1.25;;
59408;SDS011;45213;32.654;-115.458;2022-07-29T11:15:12;3.47;;;0.98;;
59408;SDS011;45213;32.654;-115.458;2022-07-29T11:23:18;2.88;;;1.00;;
59408;SDS011;45213;32.654;-115.458;2022-07-29T11:26:17;2.03;;;0.77;;
59408;SDS011;45213;32.654;-115.458;2022-07-29T11:28:57;2.20;;;1.02;;
59408;SDS011;45213;32.654;-115.458;2022-07-29T11:39:43;3.23;;;0.90;;
59408;SDS011;45213;32.654;-115.458;2022-07-29T11:44:54;5.00;;;1.30;;
59408;SDS011;45213;32.654;-115.458;2022-07-29T11:47:28;4.90;;;1.00;;
59408;SDS011;45213;32.654;-115.458;2022-07-29T11:49:56;2.90;;;1.00;;
59408;SDS011;45213;32.654;-115.458;2022-07-29T11:52:24;4.32;;;1.20;;
59408;SDS011;45213;32.654;-115.458;2022-07-29T11:55:09;5.07;;;1.30;;
59408;SDS011;45213;32.654;-115.458;2022-07-29T11:57:45;4.10;;;0.95;;
59408;SDS011;45213;32.654;-115.458;2022-07-29T12:00:37;2.88;;;1.00;;
59408;SDS011;45213;32.654;-115.458;2022-07-29T12:03:08;5.68;;;1.00;;
59408;SDS011;45213;32.654;-115.458;2022-07-29T12:08:18;3.70;;;1.30;;
59408;SDS011;45213;32.654;-115.458;2022-07-29T12:10:48;2.67;;;1.00;;
59408;SDS011;45213;32.654;-115.458;2022-07-29T12:13:18;2.95;;;1.20;;
59408;SDS011;45213;32.654;-115.458;2022-07-29T12:15:52;3.38;;;1.20;;
59408;SDS011;45213;32.654;-115.458;2022-07-29T12:18:24;3.22;;;1.35;;
59408;SDS011;45213;32.654;-115.458;2022-07-29T12:20:57;5.70;;;1.60;;
59408;SDS011;45213;32.654;-115.458;2022-07-29T12:23:32;2.67;;;1.40;;
59408;SDS011;45213;32.654;-115.458;2022-07-29T12:25:59;5.93;;;1.05;;
59408;SDS011;45213;32.654;-115.458;2022-07-29T12:28:26;3.55;;;1.08;;
59408;SDS011;45213;32.654;-115.458;2022-07-29T12:30:53;3.85;;;1.33;;
59408;SDS011;45213;32.654;-115.458;2022-07-29T12:33:24;6.97;;;1.40;;
59408;SDS011;45213;32.654;-115.458;2022-07-29T12:35:57;4.70;;;1.65;;
59408;SDS011;45213;32.654;-115.458;2022-07-29T12:38:26;4.93;;;1.80;;
59408;SDS011;45213;32.654;-115.458;2022-07-29T12:40:53;5.45;;;1.50;;
59408;SDS011;45213;32.654;-115.458;2022-07-29T12:43:21;2.67;;;1.70;;
59408;SDS011;45213;32.654;-115.458;2022-07-29T12:45:50;5.45;;;1.70;;
59408;SDS011;45213;32.654;-115.458;2022-07-29T12:51:03;5.22;;;1.80;;
59408;SDS011;45213;32.654;-115.458;2022-07-29T12:53:32;6.35;;;1.85;;
59408;SDS011;45213;32.654;-115.458;2022-07-29T12:55:59;6.32;;;1.85;;
59408;SDS011;45213;32.654;-115.458;2022-07-29T12:58:32;8.27;;;2.08;;
59408;SDS011;45213;32.654;-115.458;2022-07-29T13:01:02;6.32;;;2.47;;
59408;SDS011;45213;32.654;-115.458;2022-07-29T13:03:51;6.65;;;1.85;;
59408;SDS011;45213;32.654;-115.458;2022-07-29T13:06:27;4.15;;;1.92;;
59408;SDS011;45213;32.654;-115.458;2022-07-29T13:09:04;7.38;;;2.20;;
59408;SDS011;45213;32.654;-115.458;2022-07-29T13:11:34;4.90;;;2.28;;
59408;SDS011;45213;32.654;-115.458;2022-07-29T13:14:04;6.57;;;2.47;;
59408;SDS011;45213;32.654;-115.458;2022-07-29T13:16:31;8.32;;;2.35;;
59408;SDS011;45213;32.654;-115.458;2022-07-29T13:19:04;7.30;;;2.42;;
59408;SDS011;45213;32.654;-115.458;2022-07-29T13:21:33;8.00;;;2.95;;
59408;SDS011;45213;32.654;-115.458;2022-07-29T13:24:00;7.15;;;2.15;;
59408;SDS011;45213;32.654;-115.458;2022-07-29T13:26:27;12.57;;;3.05;;
59408;SDS011;45213;32.654;-115.458;2022-07-29T13:28:54;6.05;;;2.38;;
59408;SDS011;45213;32.654;-115.458;2022-07-29T13:31:21;7.55;;;2.97;;
59408;SDS011;45213;32.654;-115.458;2022-07-29T13:33:47;11.63;;;2.97;;
59408;SDS011;45213;32.654;-115.458;2022-07-29T13:36:15;8.82;;;2.67;;
59408;SDS011;45213;32.654;-115.458;2022-07-29T13:38:41;9.38;;;3.20;;
59408;SDS011;45213;32.654;-115.458;2022-07-29T13:41:08;9.80;;;2.75;;
59408;SDS011;45213;32.654;-115.458;2022-07-29T13:43:35;8.88;;;2.80;;
59408;SDS011;45213;32.654;-115.458;2022-07-29T13:46:01;15.82;;;3.05;;
59408;SDS011;45213;32.654;-115.458;2022-07-29T13:48:28;10.45;;;2.60;;
59408;SDS011;45213;32.654;-115.458;2022-07-29T13:50:55;11.25;;;3.40;;
59408;SDS011;45213;32.654;-115.458;2022-07-29T13:53:24;10.32;;;3.10;;
59408;SDS011;45213;32.654;-115.458;2022-07-29T13:55:50;10.88;;;2.95;;
59408;SDS011;45213;32.654;-115.458;2022-07-29T13:58:17;10.77;;;3.30;;
59408;SDS011;45213;32.654;-115.458;2022-07-29T14:00:44;11.93;;;3.13;;
59408;SDS011;45213;32.654;-115.458;2022-07-29T14:03:12;12.23;;;3.13;;
59408;SDS011;45213;32.654;-115.458;2022-07-29T14:05:39;14.18;;;3.67;;
59408;SDS011;45213;32.654;-115.458;2022-07-29T14:08:05;13.45;;;3.65;;
59408;SDS011;45213;32.654;-115.458;2022-07-29T14:10:35;13.30;;;4.00;;
59408;SDS011;45213;32.654;-115.458;2022-07-29T14:13:01;16.45;;;3.90;;
59408;SDS011;45213;32.654;-115.458;2022-07-29T14:15:28;19.95;;;3.97;;
59408;SDS011;45213;32.654;-115.458;2022-07-29T14:17:54;12.32;;;3.80;;
59408;SDS011;45213;32.654;-115.458;2022-07-29T14:20:21;14.07;;;4.80;;
59408;SDS011;45213;32.654;-115.458;2022-07-29T14:22:48;15.02;;;4.45;;
59408;SDS011;45213;32.654;-115.458;2022-07-29T14:25:14;13.63;;;4.20;;
59408;SDS011;45213;32.654;-115.458;2022-07-29T14:27:42;18.20;;;4.95;;
59408;SDS011;45213;32.654;-115.458;2022-07-29T14:30:09;17.52;;;4.93;;
59408;SDS011;45213;32.654;-115.458;2022-07-29T14:32:37;18.40;;;4.93;;
59408;SDS011;45213;32.654;-115.458;2022-07-29T14:35:04;19.00;;;5.50;;
59408;SDS011;45213;32.654;-115.458;2022-07-29T14:37:31;16.92;;;5.07;;
59408;SDS011;45213;32.654;-115.458;2022-07-29T14:39:58;20.70;;;5.15;;
59408;SDS011;45213;32.654;-115.458;2022-07-29T14:42:28;22.13;;;5.13;;
59408;SDS011;45213;32.654;-115.458;2022-07-29T14:44:56;18.27;;;4.90;;
59408;SDS011;45213;32.654;-115.458;2022-07-29T14:47:23;12.95;;;4.03;;
59408;SDS011;45213;32.654;-115.458;2022-07-29T14:49:50;15.65;;;4.70;;
59408;SDS011;45213;32.654;-115.458;2022-07-29T14:52:16;13.55;;;4.10;;
59408;SDS011;45213;32.654;-115.458;2022-07-29T14:54:43;16.77;;;4.80;;
59408;SDS011;45213;32.654;-115.458;2022-07-29T14:57:10;20.48;;;4.97;;
59408;SDS011;45213;32.654;-115.458;2022-07-29T14:59:37;15.43;;;4.15;;
59408;SDS011;45213;32.654;-115.458;2022-07-29T15:02:03;14.55;;;3.95;;
59408;SDS011;45213;32.654;-115.458;2022-07-29T15:04:30;17.48;;;4.72;;
59408;SDS011;45213;32.654;-115.458;2022-07-29T15:06:57;12.05;;;4.55;;
59408;SDS011;45213;32.654;-115.458;2022-07-29T15:09:23;21.20;;;4.60;;
59408;SDS011;45213;32.654;-115.458;2022-07-29T15:11:50;17.17;;;4.25;;
59408;SDS011;45213;32.654;-115.458;2022-07-29T15:14:17;14.23;;;3.83;;
59408;SDS011;45213;32.654;-115.458;2022-07-29T15:16:44;16.23;;;4.28;;
59408;SDS011;45213;32.654;-115.458;2022-07-29T15:19:10;16.92;;;4.50;;
59408;SDS011;45213;32.654;-115.458;2022-07-29T15:21:38;18.77;;;4.80;;
59408;SDS011;45213;32.654;-115.458;2022-07-29T15:24:05;15.55;;;4.38;;
59408;SDS011;45213;32.654;-115.458;2022-07-29T15:26:32;13.32;;;4.40;;
59408;SDS011;45213;32.654;-115.458;2022-07-29T15:28:59;15.30;;;4.20;;
59408;SDS011;45213;32.654;-115.458;2022-07-29T15:31:26;12.25;;;3.47;;